createdAt,value
2017-05-01T00:00:02.786Z,73.43
2017-05-01T00:05:10.611Z,73.72
2017-05-01T00:10:03.384Z,73.72
2017-05-01T00:15:03.174Z,74.01
2017-05-01T00:20:02.799Z,74.19
2017-05-01T00:25:03.403Z,74.29
2017-05-01T00:30:03.204Z,74.54
2017-05-01T00:35:03.025Z,74.73
2017-05-01T00:40:02.850Z,74.92
2017-05-01T00:45:03.451Z,75.2
2017-05-01T00:55:03.167Z,75.59
2017-05-01T01:00:03.725Z,75.68
2017-05-01T01:05:03.429Z,75.87
2017-05-01T01:10:03.137Z,75.96
2017-05-01T01:15:02.971Z,76.06
2017-05-01T01:20:03.605Z,76.35
2017-05-01T01:25:03.397Z,76.44
2017-05-01T01:30:03.052Z,76.54
2017-05-01T01:35:02.823Z,76.82
2017-05-01T01:40:03.642Z,76.92
2017-05-01T01:45:03.367Z,77.11
2017-05-01T01:50:03.113Z,77.4
2017-05-01T01:55:02.695Z,77.69
2017-05-01T02:00:03.253Z,77.97
2017-05-01T02:05:02.874Z,78.16
2017-05-01T02:10:02.765Z,78.41
2017-05-01T02:15:03.451Z,78.69
2017-05-01T02:20:03.112Z,78.98
2017-05-01T02:25:02.865Z,79.27
2017-05-01T02:30:03.635Z,79.55
2017-05-01T02:35:03.266Z,79.74
2017-05-01T02:40:02.887Z,79.83
2017-05-01T02:45:03.406Z,80.22
2017-05-01T02:50:03.125Z,80.69
2017-05-01T02:55:02.926Z,80.69
2017-05-01T03:00:02.804Z,80.98
2017-05-01T03:05:03.604Z,81.36
2017-05-01T03:10:03.484Z,81.55
2017-05-01T03:15:03.276Z,81.84
2017-05-01T03:20:02.982Z,82.03
2017-05-01T03:25:03.726Z,82.31
2017-05-01T03:30:03.492Z,82.98
2017-05-01T03:35:03.046Z,83.17
2017-05-01T03:40:02.854Z,83.45
2017-05-01T03:45:03.547Z,83.74
2017-05-01T03:50:03.310Z,84.22
2017-05-01T03:55:03.076Z,84.5
2017-05-01T04:00:02.790Z,84.69
2017-05-01T04:05:03.421Z,85.08
2017-05-01T04:10:03.240Z,85.64
2017-05-01T04:15:02.890Z,86.22
2017-05-01T04:20:03.500Z,86.69
2017-05-01T04:25:03.279Z,87.17
2017-05-01T04:30:02.832Z,87.51
2017-05-01T04:35:03.489Z,88.08
2017-05-01T04:40:03.645Z,88.56
2017-05-01T04:45:03.448Z,89.03
2017-05-01T04:50:03.161Z,89.32
2017-05-01T04:55:02.955Z,89.79
2017-05-01T05:00:03.641Z,90.31
2017-05-01T05:05:03.447Z,90.7
2017-05-01T05:10:03.049Z,90.89
2017-05-01T05:15:03.021Z,91.55
2017-05-01T05:20:02.771Z,92.03
2017-05-01T05:25:03.451Z,93.08
2017-05-01T05:30:03.252Z,93.46
2017-05-01T05:35:02.975Z,93.55
2017-05-01T05:40:02.800Z,92.98
2017-05-01T05:45:03.398Z,92.98
2017-05-01T05:50:03.203Z,93.08
2017-05-01T05:55:02.993Z,93.46
2017-05-01T06:00:03.594Z,93.51
2017-05-01T06:05:03.419Z,93.7
2017-05-01T06:10:03.072Z,93.79
2017-05-01T06:15:03.652Z,94.93
2017-05-01T06:20:03.439Z,97.89
2017-05-01T06:25:03.035Z,99.13
2017-05-01T06:30:03.636Z,99.99
2017-05-01T06:35:03.453Z,99.99
2017-05-01T06:40:03.254Z,99.99
2017-05-01T06:45:02.982Z,99.99
2017-05-01T06:50:02.822Z,99.99
2017-05-01T06:55:03.465Z,99.99
2017-05-01T07:00:03.327Z,99.99
2017-05-01T07:05:02.955Z,99.99
2017-05-01T07:10:03.606Z,99.99
2017-05-01T07:15:03.291Z,99.99
2017-05-01T07:20:03.125Z,99.99
2017-05-01T07:25:02.716Z,99.99
2017-05-01T07:30:03.549Z,99.99
2017-05-01T07:35:03.170Z,98.94
2017-05-01T07:40:03.018Z,98.56
2017-05-01T07:45:02.782Z,97.99
2017-05-01T07:50:03.568Z,96.46
2017-05-01T07:55:03.377Z,92.74
2017-05-01T08:00:03.409Z,94.93
2017-05-01T08:05:03.317Z,94.37
2017-05-01T08:10:03.209Z,93.22
2017-05-01T08:15:02.851Z,92.13
2017-05-01T08:20:03.709Z,91.94
2017-05-01T08:25:03.398Z,90.98
2017-05-01T08:30:03.164Z,91.79
2017-05-01T08:35:03.013Z,93.22
2017-05-01T08:40:02.823Z,94.17
2017-05-01T08:45:03.513Z,92.84
2017-05-01T08:50:03.592Z,92.17
2017-05-01T08:55:03.425Z,94.08
2017-05-01T09:00:03.096Z,95.51
2017-05-01T09:05:02.945Z,94.65
2017-05-01T09:10:03.739Z,94.37
2017-05-01T09:15:03.519Z,96.56
2017-05-01T09:20:03.342Z,96.08
2017-05-01T09:25:03.007Z,94.74
2017-05-01T09:30:03.680Z,94.93
2017-05-01T09:35:03.452Z,95.12
2017-05-01T09:40:03.196Z,98.99
2017-05-01T09:45:02.989Z,96.51
2017-05-01T09:50:03.650Z,97.17
2017-05-01T09:55:03.299Z,99.85
2017-05-01T10:00:03.090Z,97.08
2017-05-01T10:05:02.908Z,98.9
2017-05-01T10:10:03.620Z,97.08
2017-05-01T10:15:03.427Z,97.46
2017-05-01T10:20:03.049Z,98.36
2017-05-01T10:25:03.687Z,96.03
2017-05-01T10:30:03.548Z,96.65
2017-05-01T10:35:03.230Z,96.36
2017-05-01T10:40:03.177Z,95.89
2017-05-01T10:45:02.827Z,96.94
2017-05-01T10:50:03.479Z,97.13
2017-05-01T10:55:03.311Z,96.13
2017-05-01T11:00:02.989Z,95.61
2017-05-01T11:05:03.649Z,93.79
2017-05-01T11:10:03.584Z,98.75
2017-05-01T11:15:03.210Z,95.89
2017-05-01T11:20:02.796Z,97.94
2017-05-01T11:25:03.425Z,98.36
2017-05-01T11:30:03.433Z,98.18
2017-05-01T11:35:03.425Z,98.75
2017-05-01T11:40:03.639Z,97.94
2017-05-01T11:45:03.589Z,98.7
2017-05-01T11:50:03.572Z,98.42
2017-05-01T11:55:03.233Z,97.56
2017-05-01T12:00:02.912Z,96.13
2017-05-01T12:05:03.716Z,95.84
2017-05-01T12:10:03.103Z,97.37
2017-05-01T12:15:02.959Z,97.56
2017-05-01T12:20:02.911Z,94.32
2017-05-01T12:25:03.069Z,96.03
2017-05-01T12:30:03.403Z,96.27
2017-05-01T12:35:03.102Z,97.03
2017-05-01T12:40:03.125Z,98.08
2017-05-01T12:45:02.772Z,98.47
2017-05-01T12:50:03.209Z,99.61
2017-05-01T12:55:03.253Z,97.89
2017-05-01T13:00:03.329Z,97.03
2017-05-01T13:05:03.432Z,98.94
2017-05-01T13:10:03.265Z,97.51
2017-05-01T13:15:03.171Z,99.99
2017-05-01T13:20:03.317Z,99.37
2017-05-01T13:25:03.163Z,99.99
2017-05-01T13:30:03.653Z,99.99
2017-05-01T13:35:02.804Z,99.71
2017-05-01T13:40:02.905Z,99.99
2017-05-01T13:45:03.041Z,99.99
2017-05-01T13:50:03.199Z,99.99
2017-05-01T13:55:03.621Z,99.99
2017-05-01T14:00:03.666Z,99.99
2017-05-01T14:05:03.525Z,99.99
2017-05-01T14:10:02.786Z,99.99
2017-05-01T14:15:03.185Z,99.99
2017-05-01T14:20:03.353Z,99.99
2017-05-01T14:25:03.655Z,99.99
2017-05-01T14:30:02.914Z,99.99
2017-05-01T14:35:02.927Z,99.99
2017-05-01T14:40:03.691Z,99.99
2017-05-01T14:45:03.476Z,99.99
2017-05-01T14:50:03.088Z,99.99
2017-05-01T14:55:03.388Z,99.99
2017-05-01T15:00:02.720Z,99.99
2017-05-01T15:05:03.276Z,99.99
2017-05-01T15:10:03.249Z,99.99
2017-05-01T15:15:03.416Z,99.99
2017-05-01T15:20:02.797Z,99.99
2017-05-01T15:25:03.229Z,99.99
2017-05-01T15:30:03.126Z,99.99
2017-05-01T15:35:03.060Z,99.99
2017-05-01T15:40:02.874Z,99.99
2017-05-01T15:45:03.513Z,99.99
2017-05-01T15:50:03.106Z,99.99
2017-05-01T15:55:02.792Z,99.99
2017-05-01T16:00:03.685Z,99.99
2017-05-01T16:05:03.321Z,99.99
2017-05-01T16:10:03.099Z,99.99
2017-05-01T16:15:02.895Z,99.99
2017-05-01T16:20:03.682Z,99.99
2017-05-01T16:25:03.266Z,99.99
2017-05-01T16:30:03.086Z,99.99
2017-05-01T16:35:03.723Z,99.46
2017-05-01T16:40:03.589Z,99.08
2017-05-01T16:45:03.292Z,98.42
2017-05-01T16:50:02.913Z,97.94
2017-05-01T16:55:03.569Z,96.51
2017-05-01T17:00:03.305Z,95.56
2017-05-01T17:05:02.872Z,94.98
2017-05-01T17:10:02.768Z,94.32
2017-05-01T17:15:03.421Z,94.17
2017-05-01T17:20:03.032Z,94.93
2017-05-01T17:25:02.740Z,95.03
2017-05-01T17:30:03.372Z,95.03
2017-05-01T17:35:03.163Z,93.6
2017-05-01T17:40:02.888Z,92.74
2017-05-01T17:45:03.769Z,91.6
2017-05-01T17:50:03.544Z,91.6
2017-05-01T17:55:03.187Z,90.55
2017-05-01T18:00:02.783Z,89.89
2017-05-01T18:05:03.501Z,89.31
2017-05-01T18:10:03.125Z,88.51
2017-05-01T18:15:02.804Z,88.12
2017-05-01T18:20:03.662Z,87.17
2017-05-01T18:25:03.259Z,86.03
2017-05-01T18:30:03.074Z,86.12
2017-05-01T18:35:03.679Z,85.36
2017-05-01T18:40:03.457Z,84.5
2017-05-01T18:45:03.123Z,84.12
2017-05-01T18:50:02.802Z,83.65
2017-05-01T18:55:03.615Z,83.26
2017-05-01T19:00:03.612Z,82.5
2017-05-01T19:05:03.338Z,81.74
2017-05-01T19:10:03.104Z,81.07
2017-05-01T19:15:02.836Z,80.55
2017-05-01T19:20:03.664Z,80.27
2017-05-01T19:25:03.343Z,79.7
2017-05-01T19:30:03.055Z,79.41
2017-05-01T19:35:02.883Z,79.32
2017-05-01T19:40:03.642Z,79.03
2017-05-01T19:45:03.308Z,78.65
2017-05-01T19:50:02.907Z,78.27
2017-05-01T19:55:03.719Z,78.17
2017-05-01T20:00:03.645Z,78.08
2017-05-01T20:05:03.264Z,77.7
2017-05-01T20:10:02.977Z,77.42
2017-05-01T20:15:02.851Z,77.32
2017-05-01T20:20:03.662Z,77.22
2017-05-01T20:25:03.524Z,77.22
2017-05-01T20:30:03.225Z,77.13
2017-05-01T20:35:02.937Z,77.03
2017-05-01T20:40:02.915Z,76.75
2017-05-01T20:45:03.130Z,76.27
2017-05-01T20:50:03.285Z,76.18
2017-05-01T20:55:03.560Z,75.99
2017-05-01T21:00:03.561Z,75.79
2017-05-01T21:05:03.241Z,75.47
2017-05-01T21:10:03.437Z,75.28
2017-05-01T21:15:03.294Z,75.19
2017-05-01T21:20:02.891Z,74.99
2017-05-01T21:25:03.533Z,74.8
2017-05-01T21:30:03.330Z,74.52
2017-05-01T21:35:03.106Z,74.33
2017-05-01T21:40:02.935Z,74.14
2017-05-01T21:45:03.636Z,73.95
2017-05-01T21:50:03.472Z,73.66
2017-05-01T21:55:03.227Z,73.47
2017-05-01T22:00:02.954Z,73.28
2017-05-01T22:05:03.611Z,72.81
2017-05-01T22:10:03.419Z,72.52
2017-05-01T22:15:03.191Z,72.14
2017-05-01T22:20:02.878Z,71.95
2017-05-01T22:25:03.547Z,71.86
2017-05-01T22:30:03.212Z,71.67
2017-05-01T22:35:02.883Z,71.67
2017-05-01T22:40:03.688Z,71.57
2017-05-01T22:45:03.380Z,71.57
2017-05-01T22:50:03.247Z,71.47
2017-05-01T22:55:03.087Z,71.38
2017-05-01T23:00:18.769Z,71.28
2017-05-01T23:05:02.993Z,71.09
2017-05-01T23:10:02.829Z,71
2017-05-01T23:15:03.463Z,70.9
2017-05-01T23:20:03.140Z,70.81
2017-05-01T23:25:09.914Z,70.72
2017-05-01T23:30:03.628Z,70.62
2017-05-01T23:35:03.249Z,70.14
2017-05-01T23:40:03.057Z,70.05
2017-05-01T23:45:02.831Z,69.95
2017-05-01T23:50:03.473Z,69.85
2017-05-01T23:55:03.216Z,69.85
